createdAt,value
2017-06-22T00:00:51.245Z,17.59
2017-06-22T00:01:51.866Z,17.63
2017-06-22T00:02:52.544Z,17.64
2017-06-22T00:03:53.151Z,17.63
2017-06-22T00:04:53.819Z,17.57
2017-06-22T00:05:54.471Z,17.63
2017-06-22T00:06:55.091Z,17.60
2017-06-22T00:07:55.736Z,17.71
2017-06-22T00:08:56.344Z,17.71
2017-06-22T00:09:57.012Z,17.64
2017-06-22T00:10:57.632Z,17.57
2017-06-22T00:11:58.256Z,17.60
2017-06-22T00:12:58.871Z,17.54
2017-06-22T00:13:59.497Z,17.46
2017-06-22T00:15:00.202Z,17.41
2017-06-22T00:16:00.822Z,17.41
2017-06-22T00:17:01.441Z,17.34
2017-06-22T00:18:02.059Z,17.27
2017-06-22T00:19:02.711Z,17.29
2017-06-22T00:20:03.379Z,17.33
2017-06-22T00:21:03.999Z,17.22
2017-06-22T00:22:04.619Z,17.19
2017-06-22T00:23:05.280Z,17.19
2017-06-22T00:24:05.897Z,17.24
2017-06-22T00:25:06.565Z,17.19
2017-06-22T00:26:07.183Z,17.11
2017-06-22T00:27:07.827Z,17.14
2017-06-22T00:28:08.435Z,17.15
2017-06-22T00:29:09.081Z,17.05
2017-06-22T00:30:09.738Z,17.01
2017-06-22T00:31:10.355Z,17.08
2017-06-22T00:32:11.007Z,17.08
2017-06-22T00:33:11.637Z,17.01
2017-06-22T00:34:12.243Z,17.02
2017-06-22T00:35:12.861Z,17.05
2017-06-22T00:36:13.479Z,17.04
2017-06-22T00:37:14.163Z,16.93
2017-06-22T00:38:14.767Z,16.96
2017-06-22T00:39:15.385Z,16.94
2017-06-22T00:40:16.127Z,16.93
2017-06-22T00:41:16.734Z,17.01
2017-06-22T00:42:17.381Z,16.87
2017-06-22T00:43:17.984Z,16.90
2017-06-22T00:44:18.603Z,16.93
2017-06-22T00:45:19.322Z,16.89
2017-06-22T00:46:19.944Z,16.89
2017-06-22T00:47:20.561Z,16.90
2017-06-22T00:48:21.186Z,16.86
2017-06-22T00:49:21.839Z,16.90
2017-06-22T00:50:22.515Z,16.84
2017-06-22T00:51:23.129Z,16.87
2017-06-22T00:52:23.747Z,16.87
2017-06-22T00:53:24.371Z,16.90
2017-06-22T00:54:24.992Z,16.89
2017-06-22T00:55:25.658Z,16.87
2017-06-22T00:56:26.312Z,16.89
2017-06-22T00:57:26.929Z,16.94
2017-06-22T00:58:27.548Z,16.89
2017-06-22T00:59:28.167Z,16.84
2017-06-22T01:00:29.098Z,16.87
2017-06-22T01:01:29.704Z,16.91
2017-06-22T01:02:30.322Z,16.97
2017-06-22T01:03:30.941Z,16.94
2017-06-22T01:04:31.561Z,16.89
2017-06-22T01:05:32.231Z,16.93
2017-06-22T01:06:32.848Z,16.89
2017-06-22T01:07:33.467Z,16.89
2017-06-22T01:08:34.118Z,16.87
2017-06-22T01:09:34.722Z,16.89
2017-06-22T01:10:35.390Z,16.83
2017-06-22T01:11:36.010Z,16.87
2017-06-22T01:12:36.656Z,16.90
2017-06-22T01:13:37.313Z,16.84
2017-06-22T01:14:37.928Z,16.86
2017-06-22T01:15:38.598Z,16.81
2017-06-22T01:16:39.216Z,16.76
2017-06-22T01:17:39.834Z,16.86
2017-06-22T01:18:40.459Z,16.83
2017-06-22T01:19:41.074Z,16.81
2017-06-22T01:20:41.748Z,16.79
2017-06-22T01:21:42.363Z,16.81
2017-06-22T01:22:43.013Z,16.83
2017-06-22T01:23:43.620Z,16.81
2017-06-22T01:24:44.243Z,16.78
2017-06-22T01:25:44.908Z,16.86
2017-06-22T01:26:45.527Z,16.87
2017-06-22T01:27:46.184Z,16.83
2017-06-22T01:28:46.799Z,16.86
2017-06-22T01:29:47.433Z,16.93
2017-06-22T01:30:48.092Z,16.81
2017-06-22T01:31:48.708Z,16.86
2017-06-22T01:32:49.351Z,16.90
2017-06-22T01:33:49.957Z,16.93
2017-06-22T01:34:50.578Z,16.91
2017-06-22T01:35:51.247Z,16.81
2017-06-22T01:36:51.865Z,16.78
2017-06-22T01:37:52.483Z,16.81
2017-06-22T01:38:53.133Z,16.69
2017-06-22T01:39:53.735Z,16.68
2017-06-22T01:40:54.403Z,16.61
2017-06-22T01:41:55.023Z,16.61
2017-06-22T01:42:55.669Z,16.56
2017-06-22T01:43:56.274Z,16.60
2017-06-22T01:44:56.892Z,16.50
2017-06-22T01:45:57.563Z,16.47
2017-06-22T01:46:58.217Z,16.51
2017-06-22T01:47:58.858Z,16.47
2017-06-22T01:48:59.509Z,16.46
2017-06-22T01:50:00.134Z,16.43
2017-06-22T01:51:00.801Z,16.39
2017-06-22T01:52:01.420Z,16.46
2017-06-22T01:53:02.045Z,16.50
2017-06-22T01:54:02.660Z,16.41
2017-06-22T01:55:03.311Z,16.39
2017-06-22T01:56:03.985Z,16.53
2017-06-22T01:57:04.606Z,16.41
2017-06-22T01:58:05.222Z,16.46
2017-06-22T01:59:05.844Z,16.54
2017-06-22T02:00:06.466Z,16.53
2017-06-22T02:01:07.138Z,16.53
2017-06-22T02:02:07.796Z,16.57
2017-06-22T02:03:08.414Z,16.66
2017-06-22T02:04:09.033Z,16.61
2017-06-22T02:05:09.678Z,16.61
2017-06-22T02:06:10.339Z,16.66
2017-06-22T02:07:10.957Z,16.74
2017-06-22T02:08:11.572Z,16.72
2017-06-22T02:09:12.192Z,16.69
2017-06-22T02:10:12.809Z,16.68
2017-06-22T02:11:13.477Z,16.69
2017-06-22T02:12:14.098Z,16.74
2017-06-22T02:13:14.718Z,16.68
2017-06-22T02:14:15.335Z,16.68
2017-06-22T02:15:15.955Z,16.68
2017-06-22T02:16:16.622Z,16.64
2017-06-22T02:17:17.242Z,16.65
2017-06-22T02:18:17.888Z,16.69
2017-06-22T02:19:18.492Z,16.71
2017-06-22T02:20:19.110Z,16.71
2017-06-22T02:21:19.781Z,16.71
2017-06-22T02:22:20.402Z,16.58
2017-06-22T02:23:21.020Z,16.68
2017-06-22T02:24:21.664Z,16.61
2017-06-22T02:25:22.304Z,16.56
2017-06-22T02:26:22.957Z,16.53
2017-06-22T02:27:23.575Z,16.51
2017-06-22T02:28:24.194Z,16.46
2017-06-22T02:29:24.839Z,16.51
2017-06-22T02:30:25.446Z,16.41
2017-06-22T02:31:26.115Z,16.38
2017-06-22T02:32:26.765Z,16.33
2017-06-22T02:33:27.368Z,16.42
2017-06-22T02:34:28.052Z,16.33
2017-06-22T02:35:28.706Z,16.32
2017-06-22T02:36:29.406Z,16.42
2017-06-22T02:37:30.024Z,16.32
2017-06-22T02:38:30.642Z,16.36
2017-06-22T02:39:31.261Z,16.33
2017-06-22T02:40:31.877Z,16.43
2017-06-22T02:41:32.547Z,16.31
2017-06-22T02:42:33.166Z,16.33
2017-06-22T02:43:33.782Z,16.42
2017-06-22T02:44:34.402Z,16.33
2017-06-22T02:45:35.026Z,16.36
2017-06-22T02:46:35.695Z,16.33
2017-06-22T02:47:36.312Z,16.42
2017-06-22T02:48:36.929Z,16.36
2017-06-22T02:49:37.550Z,16.36
2017-06-22T02:50:38.167Z,16.35
2017-06-22T02:51:38.840Z,16.33
2017-06-22T02:52:39.458Z,16.33
2017-06-22T02:53:40.075Z,16.38
2017-06-22T02:54:40.692Z,16.32
2017-06-22T02:55:41.369Z,16.32
2017-06-22T02:56:42.051Z,16.36
2017-06-22T02:57:42.654Z,16.38
2017-06-22T02:58:43.278Z,16.41
2017-06-22T02:59:43.895Z,16.33
2017-06-22T03:00:44.511Z,16.36
2017-06-22T03:01:45.212Z,16.35
2017-06-22T03:02:45.831Z,16.39
2017-06-22T03:03:46.485Z,16.36
2017-06-22T03:04:47.105Z,16.39
2017-06-22T03:05:47.750Z,16.33
2017-06-22T03:06:48.402Z,16.35
2017-06-22T03:07:49.023Z,16.33
2017-06-22T03:08:49.650Z,16.28
2017-06-22T03:09:50.302Z,16.33
2017-06-22T03:10:50.920Z,16.29
2017-06-22T03:11:51.588Z,16.28
2017-06-22T03:12:52.205Z,16.26
2017-06-22T03:13:52.826Z,16.26
2017-06-22T03:14:53.478Z,16.24
2017-06-22T03:15:54.076Z,16.23
2017-06-22T03:16:54.748Z,16.23
2017-06-22T03:17:55.366Z,16.20
2017-06-22T03:18:55.984Z,16.20
2017-06-22T03:19:56.603Z,16.13
2017-06-22T03:20:57.221Z,16.16
2017-06-22T03:21:57.894Z,16.24
2017-06-22T03:22:58.548Z,16.23
2017-06-22T03:23:59.166Z,16.20
2017-06-22T03:24:59.786Z,16.23
2017-06-22T03:26:00.403Z,16.16
2017-06-22T03:27:01.099Z,16.21
2017-06-22T03:28:01.731Z,16.17
2017-06-22T03:29:02.337Z,16.16
2017-06-22T03:30:02.953Z,16.24
2017-06-22T03:31:03.570Z,16.24
2017-06-22T03:32:04.239Z,16.28
2017-06-22T03:33:04.889Z,16.13
2017-06-22T03:34:05.542Z,16.24
2017-06-22T03:35:06.161Z,16.20
2017-06-22T03:36:06.806Z,16.32
2017-06-22T03:37:07.459Z,16.33
2017-06-22T03:38:08.078Z,16.21
2017-06-22T03:39:08.733Z,16.31
2017-06-22T03:40:09.386Z,16.24
2017-06-22T03:41:10.006Z,16.24
2017-06-22T03:42:10.672Z,16.16
2017-06-22T03:43:11.290Z,16.26
2017-06-22T03:44:11.914Z,16.24
2017-06-22T03:45:12.529Z,16.23
2017-06-22T03:46:13.149Z,16.21
2017-06-22T03:47:13.816Z,16.20
2017-06-22T03:48:14.435Z,16.20
2017-06-22T03:49:15.053Z,16.21
2017-06-22T03:50:15.706Z,16.26
2017-06-22T03:51:16.323Z,16.20
2017-06-22T03:52:16.990Z,16.32
2017-06-22T03:53:17.634Z,16.24
2017-06-22T03:54:18.241Z,16.24
2017-06-22T03:55:18.858Z,16.31
2017-06-22T03:56:19.477Z,16.28
2017-06-22T03:57:20.174Z,16.36
2017-06-22T03:58:20.777Z,16.32
2017-06-22T03:59:21.395Z,16.36
2017-06-22T04:00:22.017Z,16.38
2017-06-22T04:01:22.635Z,16.39
2017-06-22T04:02:23.306Z,16.36
2017-06-22T04:03:23.948Z,16.35
2017-06-22T04:04:24.557Z,16.32
2017-06-22T04:05:25.237Z,16.36
2017-06-22T04:06:25.844Z,16.41
2017-06-22T04:07:26.511Z,16.35
2017-06-22T04:08:27.138Z,16.33
2017-06-22T04:09:27.755Z,16.39
2017-06-22T04:10:28.374Z,16.36
2017-06-22T04:11:29.026Z,16.38
2017-06-22T04:12:29.730Z,16.28
2017-06-22T04:13:30.349Z,16.31
2017-06-22T04:14:30.973Z,16.26
2017-06-22T04:15:31.592Z,16.26
2017-06-22T04:16:32.210Z,16.29
2017-06-22T04:17:32.879Z,16.33
2017-06-22T04:18:33.497Z,16.31
2017-06-22T04:19:34.155Z,16.26
2017-06-22T04:20:34.777Z,16.29
2017-06-22T04:21:35.395Z,16.26
2017-06-22T04:22:36.096Z,16.35
2017-06-22T04:23:36.698Z,16.35
2017-06-22T04:24:37.324Z,16.35
2017-06-22T04:25:37.940Z,16.31
2017-06-22T04:26:38.558Z,16.36
2017-06-22T04:27:39.234Z,16.39
2017-06-22T04:28:39.850Z,16.32
2017-06-22T04:29:40.495Z,16.42
2017-06-22T04:30:41.102Z,16.35
2017-06-22T04:31:41.719Z,16.35
2017-06-22T04:32:42.390Z,16.39
2017-06-22T04:33:43.044Z,16.42
2017-06-22T04:34:43.663Z,16.35
2017-06-22T04:35:44.284Z,16.35
2017-06-22T04:36:44.903Z,16.42
2017-06-22T04:37:45.597Z,16.41
2017-06-22T04:38:46.203Z,16.24
2017-06-22T04:39:46.821Z,16.31
2017-06-22T04:40:47.442Z,16.38
2017-06-22T04:41:48.062Z,16.42
2017-06-22T04:42:48.731Z,16.32
2017-06-22T04:43:49.385Z,16.38
2017-06-22T04:44:50.017Z,16.35
2017-06-22T04:45:50.675Z,16.39
2017-06-22T04:46:51.290Z,16.32
2017-06-22T04:47:51.961Z,16.35
2017-06-22T04:48:52.584Z,16.28
2017-06-22T04:49:53.259Z,16.36
2017-06-22T04:50:53.871Z,16.36
2017-06-22T04:51:54.488Z,16.42
2017-06-22T04:52:55.159Z,16.41
2017-06-22T04:53:55.809Z,16.39
2017-06-22T04:54:56.475Z,16.32
2017-06-22T04:55:57.138Z,16.36
2017-06-22T04:56:57.761Z,16.38
2017-06-22T04:57:58.428Z,16.35
2017-06-22T04:58:59.054Z,16.32
2017-06-22T04:59:59.669Z,16.28
2017-06-22T05:01:00.289Z,16.32
2017-06-22T05:02:00.909Z,16.38
2017-06-22T05:03:01.579Z,16.38
2017-06-22T05:04:02.198Z,16.35
2017-06-22T05:05:02.818Z,16.41
2017-06-22T05:06:03.436Z,16.33
2017-06-22T05:07:04.060Z,16.39
2017-06-22T05:08:04.726Z,16.32
2017-06-22T05:09:05.347Z,16.36
2017-06-22T05:10:05.965Z,16.43
2017-06-22T05:11:06.610Z,16.46
2017-06-22T05:12:07.215Z,16.46
2017-06-22T05:13:07.883Z,16.43
2017-06-22T05:14:08.563Z,16.50
2017-06-22T05:15:09.243Z,16.49
2017-06-22T05:16:09.850Z,16.46
2017-06-22T05:17:10.470Z,16.46
2017-06-22T05:18:11.137Z,16.42
2017-06-22T05:19:11.757Z,16.41
2017-06-22T05:20:12.408Z,16.41
2017-06-22T05:21:13.011Z,16.49
2017-06-22T05:22:13.631Z,16.38
2017-06-22T05:23:14.302Z,16.46
2017-06-22T05:24:14.953Z,16.42
2017-06-22T05:25:15.579Z,16.43
2017-06-22T05:26:16.194Z,16.42
2017-06-22T05:27:16.814Z,16.42
2017-06-22T05:28:17.483Z,16.47
2017-06-22T05:29:18.103Z,16.41
2017-06-22T05:30:18.729Z,16.43
2017-06-22T05:31:19.350Z,16.51
2017-06-22T05:32:19.974Z,16.46
2017-06-22T05:33:20.639Z,16.42
2017-06-22T05:34:21.258Z,16.53
2017-06-22T05:35:21.878Z,16.54
2017-06-22T05:36:22.496Z,16.54
2017-06-22T05:37:23.142Z,16.60
2017-06-22T05:38:23.847Z,16.61
2017-06-22T05:39:24.467Z,16.58
2017-06-22T05:40:25.124Z,16.56
2017-06-22T05:41:25.771Z,16.56
2017-06-22T05:42:26.375Z,16.56
2017-06-22T05:43:27.044Z,16.60
2017-06-22T05:44:27.669Z,16.64
2017-06-22T05:45:28.286Z,16.51
2017-06-22T05:46:28.905Z,16.53
2017-06-22T05:47:29.522Z,16.49
2017-06-22T05:48:30.192Z,16.51
2017-06-22T05:49:30.838Z,16.53
2017-06-22T05:50:31.443Z,16.51
2017-06-22T05:51:32.067Z,16.54
2017-06-22T05:52:32.690Z,16.47
2017-06-22T05:53:33.357Z,16.51
2017-06-22T05:54:33.978Z,16.58
2017-06-22T05:55:34.595Z,16.58
2017-06-22T05:56:35.212Z,16.60
2017-06-22T05:57:35.865Z,16.60
2017-06-22T05:58:36.535Z,16.57
2017-06-22T05:59:37.154Z,16.58
2017-06-22T06:00:37.774Z,16.65
2017-06-22T06:01:38.393Z,16.69
2017-06-22T06:02:39.011Z,16.66
2017-06-22T06:03:39.681Z,16.68
2017-06-22T06:04:40.301Z,16.69
2017-06-22T06:05:40.926Z,16.74
2017-06-22T06:06:41.564Z,16.69
2017-06-22T06:07:42.173Z,16.74
2017-06-22T06:08:42.868Z,16.69
2017-06-22T06:09:43.473Z,16.69
2017-06-22T06:10:44.095Z,16.76
2017-06-22T06:11:44.744Z,16.72
2017-06-22T06:12:45.377Z,16.79
2017-06-22T06:13:46.035Z,16.84
2017-06-22T06:14:46.683Z,16.81
2017-06-22T06:15:47.292Z,16.87
2017-06-22T06:16:47.911Z,16.96
2017-06-22T06:17:48.534Z,16.97
2017-06-22T06:18:49.235Z,16.96
2017-06-22T06:19:49.841Z,17.02
2017-06-22T06:20:50.459Z,17.05
2017-06-22T06:21:51.086Z,17.15
2017-06-22T06:22:51.705Z,17.06
2017-06-22T06:23:52.375Z,17.12
2017-06-22T06:24:52.995Z,17.19
2017-06-22T06:25:53.614Z,17.22
2017-06-22T06:26:54.242Z,17.24
2017-06-22T06:27:54.861Z,17.24
2017-06-22T06:28:55.532Z,17.24
2017-06-22T06:29:56.158Z,17.36
2017-06-22T06:30:56.776Z,17.33
2017-06-22T06:31:57.399Z,17.38
2017-06-22T06:32:58.025Z,17.42
2017-06-22T06:33:58.692Z,17.45
2017-06-22T06:34:59.316Z,17.44
2017-06-22T06:35:59.965Z,17.49
2017-06-22T06:37:00.598Z,17.48
2017-06-22T06:38:01.205Z,17.45
2017-06-22T06:39:01.881Z,17.60
2017-06-22T06:40:02.505Z,17.60
2017-06-22T06:41:03.124Z,17.57
2017-06-22T06:42:03.743Z,17.56
2017-06-22T06:43:04.364Z,17.60
2017-06-22T06:44:05.034Z,17.56
2017-06-22T06:45:05.656Z,17.59
2017-06-22T06:46:06.276Z,17.72
2017-06-22T06:47:06.897Z,17.71
2017-06-22T06:48:07.523Z,17.72
2017-06-22T06:49:08.190Z,17.79
2017-06-22T06:50:08.817Z,17.83
2017-06-22T06:51:09.442Z,17.83
2017-06-22T06:52:10.062Z,17.82
2017-06-22T06:53:10.680Z,17.86
2017-06-22T06:54:11.353Z,17.82
2017-06-22T06:55:12.002Z,17.86
2017-06-22T06:56:12.610Z,17.87
2017-06-22T06:57:13.234Z,17.95
2017-06-22T06:58:13.883Z,17.94
2017-06-22T06:59:14.543Z,17.94
2017-06-22T07:00:15.168Z,17.92
2017-06-22T07:01:15.789Z,18.01
2017-06-22T07:02:16.413Z,18.00
2017-06-22T07:03:17.095Z,17.97
2017-06-22T07:04:17.783Z,18.03
2017-06-22T07:05:18.439Z,18.05
2017-06-22T07:06:19.087Z,18.10
2017-06-22T07:07:19.698Z,18.13
2017-06-22T07:08:20.355Z,18.11
2017-06-22T07:09:21.026Z,18.11
2017-06-22T07:10:21.648Z,18.10
2017-06-22T07:11:22.269Z,18.15
2017-06-22T07:12:22.892Z,18.08
2017-06-22T07:13:23.556Z,18.15
2017-06-22T07:14:24.226Z,18.16
2017-06-22T07:15:24.881Z,18.13
2017-06-22T07:16:25.502Z,18.18
2017-06-22T07:17:26.126Z,18.22
2017-06-22T07:18:26.749Z,18.35
2017-06-22T07:19:27.422Z,18.37
2017-06-22T07:20:28.043Z,18.37
2017-06-22T07:21:28.667Z,18.40
2017-06-22T07:22:29.294Z,18.43
2017-06-22T07:23:29.915Z,18.43
2017-06-22T07:24:30.592Z,18.38
2017-06-22T07:25:31.212Z,18.53
2017-06-22T07:26:31.835Z,18.52
2017-06-22T07:27:32.485Z,18.49
2017-06-22T07:28:33.092Z,18.50
2017-06-22T07:29:33.765Z,18.52
2017-06-22T07:30:34.388Z,18.56
2017-06-22T07:31:35.011Z,18.59
2017-06-22T07:32:35.669Z,18.66
2017-06-22T07:33:36.290Z,18.63
2017-06-22T07:34:36.962Z,18.70
2017-06-22T07:35:37.587Z,18.71
2017-06-22T07:36:38.208Z,18.74
2017-06-22T07:37:38.831Z,18.70
2017-06-22T07:38:39.453Z,18.74
2017-06-22T07:39:40.126Z,18.73
2017-06-22T07:40:40.751Z,18.81
2017-06-22T07:41:41.371Z,18.90
2017-06-22T07:42:41.995Z,18.96
2017-06-22T07:43:42.617Z,19.00
2017-06-22T07:44:43.292Z,19.12
2017-06-22T07:45:43.940Z,19.14
2017-06-22T07:46:44.552Z,19.18
2017-06-22T07:47:45.175Z,19.21
2017-06-22T07:48:45.799Z,19.19
2017-06-22T07:49:46.473Z,19.16
2017-06-22T07:50:47.096Z,19.31
2017-06-22T07:51:47.718Z,19.30
2017-06-22T07:52:48.340Z,19.24
2017-06-22T07:53:48.969Z,19.18
2017-06-22T07:54:49.638Z,19.21
2017-06-22T07:55:50.260Z,19.31
2017-06-22T07:56:50.883Z,19.24
2017-06-22T07:57:51.507Z,19.24
2017-06-22T07:58:52.133Z,19.33
2017-06-22T07:59:52.803Z,19.29
2017-06-22T08:00:53.426Z,19.22
2017-06-22T08:01:54.082Z,19.33
2017-06-22T08:02:54.706Z,19.34
2017-06-22T08:03:55.330Z,19.33
2017-06-22T08:04:56.001Z,19.37
2017-06-22T08:05:56.624Z,19.40
2017-06-22T08:06:57.246Z,19.49
2017-06-22T08:07:57.871Z,19.41
2017-06-22T08:08:58.526Z,19.40
2017-06-22T08:09:59.183Z,19.51
2017-06-22T08:10:59.806Z,19.51
2017-06-22T08:12:00.431Z,19.52
2017-06-22T08:13:01.086Z,19.54
2017-06-22T08:14:01.710Z,19.56
2017-06-22T08:15:02.383Z,19.54
2017-06-22T08:16:03.007Z,19.64
2017-06-22T08:17:03.631Z,19.64
2017-06-22T08:18:04.253Z,19.64
2017-06-22T08:19:04.880Z,19.74
2017-06-22T08:20:05.578Z,19.82
2017-06-22T08:21:06.187Z,19.82
2017-06-22T08:22:06.813Z,19.88
2017-06-22T08:23:07.440Z,19.92
2017-06-22T08:24:08.059Z,20.02
2017-06-22T08:25:08.733Z,20.10
2017-06-22T08:26:09.363Z,20.07
2017-06-22T08:27:09.984Z,20.03
2017-06-22T08:28:10.606Z,20.02
2017-06-22T08:29:11.227Z,20.10
2017-06-22T08:30:11.902Z,20.13
2017-06-22T08:31:12.528Z,20.25
2017-06-22T08:32:13.149Z,20.25
2017-06-22T08:33:13.772Z,20.21
2017-06-22T08:34:14.398Z,20.36
2017-06-22T08:35:15.097Z,20.43
2017-06-22T08:36:15.709Z,20.39
2017-06-22T08:37:16.332Z,20.52
2017-06-22T08:38:16.955Z,20.43
2017-06-22T08:39:17.579Z,20.37
2017-06-22T08:40:18.283Z,20.52
2017-06-22T08:41:18.920Z,20.50
2017-06-22T08:42:19.555Z,20.52
2017-06-22T08:43:20.167Z,20.52
2017-06-22T08:44:20.791Z,20.60
2017-06-22T08:45:21.501Z,20.58
2017-06-22T08:46:22.124Z,20.60
2017-06-22T08:47:22.747Z,20.60
2017-06-22T08:48:23.371Z,20.67
2017-06-22T08:49:23.995Z,20.70
2017-06-22T08:50:24.670Z,20.74
2017-06-22T08:51:25.321Z,20.72
2017-06-22T08:52:25.932Z,20.75
2017-06-22T08:53:26.555Z,20.78
2017-06-22T08:54:27.181Z,20.81
2017-06-22T08:55:27.878Z,20.75
2017-06-22T08:56:28.491Z,20.77
2017-06-22T08:57:29.115Z,20.77
2017-06-22T08:58:29.739Z,20.88
2017-06-22T08:59:30.396Z,20.85
2017-06-22T09:00:31.071Z,20.87
2017-06-22T09:01:31.696Z,20.85
2017-06-22T09:02:32.320Z,20.92
2017-06-22T09:03:32.949Z,20.96
2017-06-22T09:04:33.572Z,20.92
2017-06-22T09:05:34.247Z,20.85
2017-06-22T09:06:34.871Z,20.87
2017-06-22T09:07:35.496Z,20.85
2017-06-22T09:08:36.156Z,20.84
2017-06-22T09:09:36.778Z,21.05
2017-06-22T09:10:37.451Z,21.00
2017-06-22T09:11:38.076Z,21.14
2017-06-22T09:12:38.707Z,21.20
2017-06-22T09:13:39.329Z,21.24
2017-06-22T09:14:39.985Z,21.22
2017-06-22T09:15:40.660Z,21.24
2017-06-22T09:16:41.320Z,21.33
2017-06-22T09:17:41.944Z,21.43
2017-06-22T09:18:42.570Z,21.48
2017-06-22T09:19:43.193Z,21.50
2017-06-22T09:20:43.867Z,21.51
2017-06-22T09:21:44.494Z,21.54
2017-06-22T09:22:45.118Z,21.62
2017-06-22T09:23:45.743Z,21.66
2017-06-22T09:24:46.367Z,21.76
2017-06-22T09:25:47.044Z,21.67
2017-06-22T09:26:47.669Z,21.80
2017-06-22T09:27:48.292Z,21.82
2017-06-22T09:28:48.916Z,21.92
2017-06-22T09:29:49.540Z,21.91
2017-06-22T09:30:50.250Z,21.98
2017-06-22T09:31:50.875Z,22.00
2017-06-22T09:32:51.500Z,22.14
2017-06-22T09:33:52.158Z,22.17
2017-06-22T09:34:52.815Z,22.15
2017-06-22T09:35:53.490Z,22.20
2017-06-22T09:36:54.121Z,22.35
2017-06-22T09:37:54.745Z,22.36
2017-06-22T09:38:55.375Z,22.32
2017-06-22T09:39:56.000Z,22.33
2017-06-22T09:40:56.676Z,22.45
2017-06-22T09:41:57.305Z,22.44
2017-06-22T09:42:57.931Z,22.47
2017-06-22T09:43:58.555Z,22.51
2017-06-22T09:44:59.205Z,22.51
2017-06-22T09:45:59.867Z,22.62
2017-06-22T09:47:00.493Z,22.76
2017-06-22T09:48:01.118Z,22.75
2017-06-22T09:49:01.749Z,22.78
2017-06-22T09:50:02.387Z,22.62
2017-06-22T09:51:03.054Z,22.59
2017-06-22T09:52:03.675Z,22.55
2017-06-22T09:53:04.302Z,22.59
2017-06-22T09:54:04.931Z,22.62
2017-06-22T09:55:05.556Z,22.72
2017-06-22T09:56:06.231Z,22.75
2017-06-22T09:57:06.858Z,22.80
2017-06-22T09:58:07.483Z,22.73
2017-06-22T09:59:08.109Z,22.78
2017-06-22T10:00:08.733Z,22.76
2017-06-22T10:01:09.438Z,22.85
2017-06-22T10:02:10.049Z,22.81
2017-06-22T10:03:10.697Z,22.90
2017-06-22T10:04:11.309Z,22.98
2017-06-22T10:05:11.965Z,23.06
2017-06-22T10:06:12.626Z,23.03
2017-06-22T10:07:13.278Z,23.10
2017-06-22T10:08:13.891Z,23.24
2017-06-22T10:09:14.518Z,23.28
2017-06-22T10:10:15.142Z,23.39
2017-06-22T10:11:15.818Z,23.41
2017-06-22T10:12:16.451Z,23.40
2017-06-22T10:13:17.073Z,23.40
2017-06-22T10:14:17.699Z,23.32
2017-06-22T10:15:18.324Z,23.25
2017-06-22T10:16:19.003Z,23.24
2017-06-22T10:17:19.628Z,23.20
2017-06-22T10:18:20.253Z,23.17
2017-06-22T10:19:20.884Z,23.13
2017-06-22T10:20:21.508Z,23.10
2017-06-22T10:21:22.186Z,23.18
2017-06-22T10:22:22.821Z,23.27
2017-06-22T10:23:23.454Z,23.41
2017-06-22T10:24:24.079Z,23.41
2017-06-22T10:25:24.734Z,23.44
2017-06-22T10:26:25.410Z,23.39
2017-06-22T10:27:26.065Z,23.36
2017-06-22T10:28:26.676Z,23.40
2017-06-22T10:29:27.302Z,23.44
2017-06-22T10:30:27.933Z,23.40
2017-06-22T10:31:28.607Z,23.44
2017-06-22T10:32:29.232Z,23.47
2017-06-22T10:33:29.882Z,23.59
2017-06-22T10:34:30.493Z,23.77
2017-06-22T10:35:31.123Z,23.63
2017-06-22T10:36:31.833Z,23.63
2017-06-22T10:37:32.460Z,23.65
2017-06-22T10:38:33.087Z,23.74
2017-06-22T10:39:33.713Z,23.71
2017-06-22T10:40:34.371Z,23.80
2017-06-22T10:41:35.031Z,23.91
2017-06-22T10:42:35.656Z,24.10
2017-06-22T10:43:36.283Z,24.08
2017-06-22T10:44:36.911Z,24.08
2017-06-22T10:45:37.536Z,24.13
2017-06-22T10:46:38.213Z,24.10
2017-06-22T10:47:38.905Z,23.99
2017-06-22T10:48:39.514Z,24.06
2017-06-22T10:49:40.142Z,24.13
2017-06-22T10:50:40.767Z,24.23
2017-06-22T10:51:41.442Z,24.38
2017-06-22T10:52:42.070Z,24.51
2017-06-22T10:53:42.703Z,24.58
2017-06-22T10:54:43.325Z,24.73
2017-06-22T10:55:43.957Z,24.69
2017-06-22T10:56:44.632Z,24.63
2017-06-22T10:57:45.258Z,24.65
2017-06-22T10:58:45.889Z,24.61
2017-06-22T10:59:46.515Z,24.47
2017-06-22T11:00:47.147Z,24.47
2017-06-22T11:01:47.822Z,24.57
2017-06-22T11:02:48.450Z,24.48
2017-06-22T11:03:49.102Z,24.60
2017-06-22T11:04:49.716Z,24.58
2017-06-22T11:05:50.343Z,24.70
2017-06-22T11:06:51.022Z,24.80
2017-06-22T11:07:51.649Z,24.84
2017-06-22T11:08:52.276Z,24.98
2017-06-22T11:09:52.905Z,24.98
2017-06-22T11:10:53.529Z,24.98
2017-06-22T11:11:54.206Z,25.04
2017-06-22T11:12:54.831Z,25.10
2017-06-22T11:13:55.486Z,25.11
2017-06-22T11:14:56.147Z,25.13
2017-06-22T11:15:56.799Z,25.18
2017-06-22T11:16:57.511Z,25.13
2017-06-22T11:17:58.163Z,25.22
2017-06-22T11:18:58.782Z,25.13
2017-06-22T11:19:59.412Z,25.16
2017-06-22T11:21:00.044Z,25.08
2017-06-22T11:22:00.749Z,25.23
2017-06-22T11:23:01.362Z,25.41
2017-06-22T11:24:01.987Z,25.55
2017-06-22T11:25:02.645Z,25.60
2017-06-22T11:26:03.257Z,25.63
2017-06-22T11:27:03.937Z,25.73
2017-06-22T11:28:04.565Z,25.81
2017-06-22T11:29:05.192Z,25.93
2017-06-22T11:30:05.820Z,26.00
2017-06-22T11:31:06.448Z,26.05
2017-06-22T11:32:07.153Z,26.10
2017-06-22T11:33:07.769Z,26.03
2017-06-22T11:34:08.402Z,26.15
2017-06-22T11:35:09.032Z,26.05
2017-06-22T11:36:09.658Z,26.07
2017-06-22T11:37:10.370Z,26.18
2017-06-22T11:38:11.003Z,26.21
2017-06-22T11:39:11.633Z,26.13
2017-06-22T11:40:12.264Z,26.18
2017-06-22T11:41:12.890Z,26.00
2017-06-22T11:42:13.570Z,26.13
2017-06-22T11:43:14.198Z,26.15
2017-06-22T11:44:14.832Z,26.25
2017-06-22T11:45:15.465Z,26.19
2017-06-22T11:46:16.087Z,26.22
2017-06-22T11:47:16.766Z,26.21
2017-06-22T11:48:17.394Z,26.26
2017-06-22T11:49:18.021Z,26.29
2017-06-22T11:50:18.676Z,26.33
2017-06-22T11:51:19.290Z,26.16
2017-06-22T11:52:19.968Z,26.25
2017-06-22T11:53:20.622Z,26.22
2017-06-22T11:54:21.235Z,26.29
2017-06-22T11:55:21.896Z,26.36
2017-06-22T11:56:22.509Z,26.31
2017-06-22T11:57:23.186Z,26.38
2017-06-22T11:58:23.815Z,26.51
2017-06-22T11:59:24.442Z,26.41
2017-06-22T12:00:25.072Z,26.23
2017-06-22T12:01:25.699Z,26.28
2017-06-22T12:02:26.386Z,26.34
2017-06-22T12:03:27.013Z,26.28
2017-06-22T12:04:27.638Z,26.29
2017-06-22T12:05:28.302Z,26.28
2017-06-22T12:06:28.929Z,26.40
2017-06-22T12:07:29.608Z,26.40
2017-06-22T12:08:30.237Z,26.28
2017-06-22T12:09:30.871Z,26.21
2017-06-22T12:10:31.532Z,26.10
2017-06-22T12:11:32.163Z,25.99
2017-06-22T12:12:32.839Z,26.03
2017-06-22T12:13:33.468Z,26.03
2017-06-22T12:14:34.097Z,26.18
2017-06-22T12:15:34.725Z,26.28
2017-06-22T12:16:35.356Z,26.43
2017-06-22T12:17:36.034Z,26.38
2017-06-22T12:18:36.663Z,26.45
2017-06-22T12:19:37.292Z,26.47
2017-06-22T12:20:37.921Z,26.62
2017-06-22T12:21:38.550Z,26.58
2017-06-22T12:22:39.228Z,26.56
2017-06-22T12:23:39.883Z,26.52
2017-06-22T12:24:40.528Z,26.48
2017-06-22T12:25:41.167Z,26.48
2017-06-22T12:26:41.809Z,26.45
2017-06-22T12:27:42.474Z,26.36
2017-06-22T12:28:43.104Z,26.29
2017-06-22T12:29:43.739Z,26.29
2017-06-22T12:30:44.364Z,26.28
2017-06-22T12:31:44.993Z,26.34
2017-06-22T12:32:45.671Z,26.40
2017-06-22T12:33:46.298Z,26.34
2017-06-22T12:34:46.928Z,26.38
2017-06-22T12:35:47.589Z,26.28
2017-06-22T12:36:48.252Z,26.28
2017-06-22T12:37:49.221Z,26.29
2017-06-22T12:38:49.852Z,26.33
2017-06-22T12:39:50.478Z,26.51
2017-06-22T12:40:51.107Z,26.59
2017-06-22T12:41:51.733Z,26.74
2017-06-22T12:42:52.414Z,26.78
2017-06-22T12:43:53.045Z,26.88
2017-06-22T12:44:53.678Z,26.85
2017-06-22T12:45:54.312Z,26.68
2017-06-22T12:46:54.937Z,26.81
2017-06-22T12:47:55.615Z,26.99
2017-06-22T12:48:56.251Z,26.96
2017-06-22T12:49:56.874Z,27.08
2017-06-22T12:50:57.534Z,27.12
2017-06-22T12:51:58.175Z,26.92
2017-06-22T12:52:58.841Z,26.90
2017-06-22T12:53:59.469Z,26.88
2017-06-22T12:55:00.099Z,26.99
2017-06-22T12:56:00.728Z,26.96
2017-06-22T12:57:01.357Z,26.96
2017-06-22T12:58:02.035Z,26.95
2017-06-22T12:59:02.665Z,26.81
2017-06-22T13:00:03.292Z,26.80
2017-06-22T13:01:03.948Z,26.68